Aviation Digital Data Service (ADDS)

Output produced by METARs form (1806 UTC 24 June 2019)
found at http://www.aviationweather.gov/metar/data/
 
Forecast for: LEBL (BARCELONA AIRPOR, ES)
Text: TAF LEBL 241700Z 2418/2518 06013KT CAVOK TX27/2512Z TN21/2506Z
Forecast period: 1800 UTC 24 June 2019 to 1800 UTC 25 June 2019
Forecast type: FROM: standard forecast or significant change
Winds: from the ENE (60 degrees) at 15 MPH (13 knots; 6.7 m/s)
Visibility: 6 or more miles 10+ km)
Ceiling: unknown
Clouds: missing
Weather: no significant weather forecast for this period